MMVR/VER METAR and TAF weather

Enter ICAO airport designator
Station Type Date Time Source
MMVR METAR 2020/02/28 04:44 UTC NOAA

MMVR 280444Z 00000KT 7SM OVC030 18/11 A3035 RMK 8/5// HZY


Station Type Date Time Source
MMVR Decoded METAR 2020/02/28 04:44 UTC NOAA

Veracruz / Las Bajadas / General Heriberto Jara, Mexico (MMVR) 19-09N 096-11W
Feb 27, 2020 - 11:44 PM EST / 2020.02.28 0444 UTC
Wind: Calm:0
Visibility: 7 mile(s):0
Sky conditions: overcast
Temperature: 64 F (18 C)
Dew Point: 51 F (11 C)
Relative Humidity: 63%
Pressure (altimeter): 30.35 in. Hg (1027 hPa)
ob: MMVR 280444Z 00000KT 7SM OVC030 18/11 A3035 RMK 8/5// HZY
cycle: 4

Station Type Date Time Source
MMVR TAF 2020/02/28 06:30 UTC NOAA

TAF MMVR 280423Z 2806/2906 36005KT P6SM OVC025 TX23/2820Z TN16/2812Z PROB40 2812/2816 4SM -RA HZ BKN010
FM281800 36012KT P6SM SCT015 BKN080 PROB40 2902/2906 5SM -RA BKN015

Example: see airport list